Time;durP1;ratioP1;P1;durP2;ratioP2;P2;SDS_P1;SDS_P2;PMS_P1;PMS_P2;Temp;Humidity;BMP_temperature;BMP_pressure;BME280_temperature;BME280_humidity;BME280_pressure;Samples;Min_cycle;Max_cycle;Signal;HPM_P1;HPM_P2
2022/03/31 00:00:35;;;;;;;31.60;16.00;;;8.30;65.50;;;;;;5060150;28;46346;-64
2022/03/31 00:03:04;;;;;;;30.03;18.60;;;8.30;65.50;;;;;;5058161;28;46513;-65
2022/03/31 00:05:30;;;;;;;31.03;17.17;;;8.30;65.40;;;;;;5058438;28;46399;-65
2022/03/31 00:08:08;;;;;;;29.03;18.10;;;8.40;64.80;;;;;;5059475;28;46462;-66
2022/03/31 00:10:39;;;;;;;27.90;17.00;;;8.50;64.30;;;;;;5060204;28;46391;-65
2022/03/31 00:13:07;;;;;;;33.63;19.10;;;8.50;64.10;;;;;;5058218;28;46744;-68
2022/03/31 00:15:33;;;;;;;41.17;19.93;;;8.50;64.10;;;;;;5058000;28;46452;-65
2022/03/31 00:18:01;;;;;;;33.90;18.97;;;8.40;64.60;;;;;;5058455;28;46351;-65
2022/03/31 00:20:27;;;;;;;30.37;17.60;;;8.50;64.10;;;;;;5057930;28;46482;-66
2022/03/31 00:22:53;;;;;;;31.83;17.60;;;8.60;64.20;;;;;;5058680;28;47073;-65
2022/03/31 00:25:19;;;;;;;31.97;17.47;;;8.70;64.30;;;;;;5058076;28;45791;-65
2022/03/31 00:27:44;;;;;;;30.60;18.33;;;8.80;64.30;;;;;;5056679;28;46369;-68
2022/03/31 00:30:13;;;;;;;27.10;16.37;;;8.80;63.90;;;;;;5058865;28;46432;-65
2022/03/31 00:32:39;;;;;;;26.03;15.77;;;8.90;63.80;;;;;;5060795;28;46430;-66
2022/03/31 00:35:07;;;;;;;31.27;16.63;;;8.90;63.90;;;;;;5061628;28;46317;-63
2022/03/31 00:37:33;;;;;;;28.47;17.60;;;8.90;63.80;;;;;;5059913;28;46299;-65
2022/03/31 00:39:58;;;;;;;32.00;17.37;;;8.90;63.70;;;;;;5061371;28;46535;-66
2022/03/31 00:42:25;;;;;;;29.47;17.70;;;8.90;63.80;;;;;;5063311;28;46448;-65
2022/03/31 00:44:50;;;;;;;30.67;19.20;;;9.00;63.90;;;;;;5061917;28;46481;-66
2022/03/31 00:47:17;;;;;;;32.63;18.87;;;9.00;63.90;;;;;;5061533;28;46309;-65
2022/03/31 00:49:43;;;;;;;31.83;19.33;;;9.00;63.90;;;;;;5028495;28;46594;-65
2022/03/31 00:52:09;;;;;;;40.00;20.53;;;8.90;63.90;;;;;;5061139;28;46468;-65
2022/03/31 00:54:35;;;;;;;34.10;20.50;;;8.80;64.40;;;;;;5061814;28;46871;-65
2022/03/31 00:57:03;;;;;;;32.63;19.50;;;8.80;64.40;;;;;;5060943;28;46383;-65
2022/03/31 00:59:30;;;;;;;36.57;22.20;;;8.80;64.40;;;;;;5059502;28;46674;-65
2022/03/31 01:01:57;;;;;;;37.47;21.40;;;8.90;64.00;;;;;;5059158;28;46575;-64
2022/03/31 01:04:22;;;;;;;38.60;21.70;;;8.90;64.30;;;;;;5060589;28;46509;-66
2022/03/31 01:06:49;;;;;;;40.73;21.40;;;8.80;64.40;;;;;;5062272;28;45783;-65
2022/03/31 01:09:15;;;;;;;37.30;21.53;;;8.70;64.30;;;;;;5061600;28;46615;-66
2022/03/31 01:11:41;;;;;;;35.73;21.40;;;8.60;64.70;;;;;;5058402;28;47940;-66
2022/03/31 01:14:07;;;;;;;36.60;20.20;;;8.70;64.30;;;;;;5058398;28;45896;-65
2022/03/31 01:16:34;;;;;;;31.70;18.53;;;8.70;64.30;;;;;;5060912;28;46452;-66
2022/03/31 01:19:09;;;;;;;29.10;17.93;;;8.80;64.40;;;;;;5057482;28;46318;-64
2022/03/31 01:21:43;;;;;;;34.43;19.33;;;8.70;64.30;;;;;;5060283;28;46046;-64
2022/03/31 01:24:13;;;;;;;34.63;19.80;;;8.70;64.30;;;;;;5056138;28;46283;-65
2022/03/31 01:26:40;;;;;;;33.10;18.17;;;8.60;64.20;;;;;;5061461;28;46464;-64
2022/03/31 01:29:07;;;;;;;37.37;19.30;;;8.60;64.20;;;;;;5054733;28;46568;-65
2022/03/31 01:31:33;;;;;;;31.30;19.07;;;8.40;64.80;;;;;;5053440;28;46420;-64
2022/03/31 01:33:58;;;;;;;34.53;18.93;;;8.50;64.80;;;;;;5054319;28;46575;-64
2022/03/31 01:36:26;;;;;;;33.07;18.70;;;8.40;66.10;;;;;;5028906;28;46450;-65
2022/03/31 01:38:52;;;;;;;31.10;18.63;;;8.30;65.30;;;;;;5059101;28;46499;-65
2022/03/31 01:41:17;;;;;;;38.10;19.13;;;8.20;65.70;;;;;;5058741;28;46387;-64
2022/03/31 01:43:43;;;;;;;36.23;20.93;;;8.20;65.80;;;;;;5054293;28;46418;-65
2022/03/31 01:46:09;;;;;;;35.07;19.03;;;8.30;65.40;;;;;;5061131;28;46314;-65
2022/03/31 01:48:35;;;;;;;35.93;19.93;;;8.30;65.40;;;;;;5060673;28;46626;-64
2022/03/31 01:51:04;;;;;;;36.17;20.93;;;8.30;65.20;;;;;;5057689;28;47287;-64
2022/03/31 01:53:31;;;;;;;36.43;20.20;;;8.20;65.20;;;;;;5048087;28;45786;-65
2022/03/31 01:55:56;;;;;;;41.43;21.97;;;8.20;65.30;;;;;;5061272;28;45803;-64
2022/03/31 01:58:23;;;;;;;42.57;23.03;;;8.20;65.20;;;;;;5061698;28;46439;-65
2022/03/31 02:00:50;;;;;;;46.37;23.50;;;8.20;65.20;;;;;;5059882;28;47146;-65
2022/03/31 02:03:16;;;;;;;45.63;23.40;;;8.20;65.40;;;;;;5052469;28;46430;-64
2022/03/31 02:05:42;;;;;;;51.90;24.87;;;8.20;65.60;;;;;;5048365;28;46337;-65
2022/03/31 02:08:08;;;;;;;47.40;23.10;;;8.20;65.60;;;;;;5061342;28;46460;-64
2022/03/31 02:10:33;;;;;;;59.30;25.97;;;8.10;65.80;;;;;;5060083;28;46590;-66
2022/03/31 02:13:00;;;;;;;44.97;24.67;;;8.20;65.70;;;;;;5056076;28;45827;-66
2022/03/31 02:15:26;;;;;;;48.10;25.47;;;8.20;65.40;;;;;;5056986;28;46650;-64
2022/03/31 02:17:53;;;;;;;49.73;24.83;;;8.20;65.70;;;;;;5056986;28;46334;-65
2022/03/31 02:20:18;;;;;;;45.57;24.23;;;8.20;65.60;;;;;;5058590;28;46429;-66
2022/03/31 02:22:44;;;;;;;47.60;25.70;;;8.30;65.40;;;;;;5058679;28;45839;-64
2022/03/31 02:25:11;;;;;;;46.63;24.27;;;8.30;65.20;;;;;;5056963;28;46394;-65
2022/03/31 02:27:37;;;;;;;63.03;28.37;;;8.30;65.30;;;;;;5059286;28;46261;-67
2022/03/31 02:30:05;;;;;;;50.90;25.20;;;8.30;65.10;;;;;;5057507;28;46473;-64
2022/03/31 02:32:30;;;;;;;48.13;25.13;;;8.30;65.20;;;;;;5058495;28;45880;-64
2022/03/31 02:34:57;;;;;;;52.37;26.40;;;8.30;65.50;;;;;;5058163;28;46369;-67
2022/03/31 02:37:23;;;;;;;55.00;27.50;;;8.30;65.40;;;;;;5057481;28;46472;-65
2022/03/31 02:39:49;;;;;;;51.47;26.17;;;8.50;65.20;;;;;;5058562;28;46395;-67
2022/03/31 02:42:16;;;;;;;49.37;26.10;;;8.40;65.00;;;;;;5059360;28;46626;-64
2022/03/31 02:44:42;;;;;;;49.17;27.40;;;8.50;65.10;;;;;;5057495;28;45761;-65
2022/03/31 02:47:09;;;;;;;54.97;26.93;;;8.40;65.10;;;;;;5057781;28;46679;-64
2022/03/31 02:49:35;;;;;;;49.23;24.57;;;8.40;65.10;;;;;;5058932;28;46516;-65
2022/03/31 02:52:01;;;;;;;51.83;24.57;;;8.40;65.30;;;;;;5058950;28;46306;-65
2022/03/31 02:57:12;;;;;;;45.00;25.07;;;8.40;65.50;;;;;;5057878;28;46494;-65
2022/03/31 02:59:38;;;;;;;52.33;23.87;;;8.20;66.10;;;;;;5054939;28;46443;-64
2022/03/31 03:02:04;;;;;;;45.10;24.90;;;8.20;66.50;;;;;;5057863;28;46409;-66
2022/03/31 03:04:30;;;;;;;49.43;26.73;;;8.10;66.80;;;;;;5055193;28;46480;-67
2022/03/31 03:06:55;;;;;;;54.10;26.53;;;8.00;67.40;;;;;;5060544;28;46413;-65
2022/03/31 03:09:21;;;;;;;57.60;27.87;;;8.00;67.70;;;;;;5059684;28;46438;-65
2022/03/31 03:11:47;;;;;;;53.47;26.70;;;8.00;67.80;;;;;;5060768;28;46423;-66
2022/03/31 03:14:14;;;;;;;50.97;25.90;;;7.90;67.80;;;;;;5060205;28;46266;-65
2022/03/31 03:16:42;;;;;;;50.10;26.13;;;7.90;67.80;;;;;;5059854;28;46875;-67
2022/03/31 03:19:09;;;;;;;53.17;26.00;;;8.00;67.50;;;;;;5060371;28;46059;-64
2022/03/31 03:21:35;;;;;;;48.70;25.43;;;8.10;67.10;;;;;;5059065;28;46429;-65
2022/03/31 03:24:03;;;;;;;52.20;27.13;;;8.20;66.90;;;;;;5059375;28;46314;-65
2022/03/31 03:26:29;;;;;;;64.93;26.40;;;8.20;66.40;;;;;;5059309;28;46432;-65
2022/03/31 03:28:55;;;;;;;58.50;27.20;;;8.30;66.20;;;;;;5060064;28;46133;-64
2022/03/31 03:31:21;;;;;;;52.47;26.80;;;8.30;66.00;;;;;;5060228;28;46361;-64
2022/03/31 03:33:47;;;;;;;51.10;26.17;;;8.40;65.90;;;;;;5056780;28;46575;-65
2022/03/31 03:36:19;;;;;;;54.03;26.00;;;8.40;65.70;;;;;;5055474;28;46676;-65
2022/03/31 03:38:45;;;;;;;49.13;25.23;;;8.50;65.80;;;;;;5059178;28;47078;-64
2022/03/31 03:41:13;;;;;;;52.73;27.17;;;8.50;65.60;;;;;;5059337;28;46490;-64
2022/03/31 03:43:42;;;;;;;47.73;26.83;;;8.50;65.70;;;;;;5058153;28;46374;-64
2022/03/31 03:46:09;;;;;;;53.30;27.87;;;8.50;65.50;;;;;;5053826;28;46233;-65
2022/03/31 03:48:35;;;;;;;49.47;25.67;;;8.40;65.80;;;;;;5054378;28;46603;-64
2022/03/31 03:51:00;;;;;;;49.40;26.00;;;8.40;66.10;;;;;;5054287;28;45880;-65
2022/03/31 03:53:26;;;;;;;50.10;26.23;;;8.40;66.40;;;;;;5058412;28;45973;-65
2022/03/31 03:55:52;;;;;;;50.70;25.47;;;8.40;66.60;;;;;;5056399;28;46443;-65
2022/03/31 03:58:18;;;;;;;49.50;25.83;;;8.30;66.70;;;;;;5050256;28;46367;-64
2022/03/31 04:00:44;;;;;;;50.90;24.37;;;8.30;67.10;;;;;;5054301;28;46344;-65
2022/03/31 04:03:09;;;;;;;46.43;25.20;;;8.30;67.00;;;;;;5056192;28;46358;-65
2022/03/31 04:05:35;;;;;;;51.90;25.90;;;8.20;67.50;;;;;;5058843;28;46386;-65
2022/03/31 04:08:01;;;;;;;45.80;24.93;;;8.30;67.10;;;;;;5059138;28;46465;-65
2022/03/31 04:10:26;;;;;;;46.10;23.60;;;8.40;66.90;;;;;;5060393;28;45796;-65
2022/03/31 04:12:52;;;;;;;45.77;24.70;;;8.50;66.60;;;;;;5058445;28;46314;-64
2022/03/31 04:15:18;;;;;;;46.50;25.47;;;8.60;66.30;;;;;;5060563;28;46290;-64
2022/03/31 04:17:44;;;;;;;48.03;25.80;;;8.70;65.80;;;;;;5054627;28;46626;-65
2022/03/31 04:20:11;;;;;;;39.30;22.60;;;8.70;65.40;;;;;;5059612;28;46336;-65
2022/03/31 04:22:37;;;;;;;48.93;24.60;;;8.70;65.30;;;;;;5057240;28;46413;-65
2022/03/31 04:25:07;;;;;;;45.43;24.90;;;8.80;65.60;;;;;;5057161;28;46412;-64
2022/03/31 04:27:37;;;;;;;46.80;24.43;;;8.80;65.40;;;;;;5049084;28;46287;-65
2022/03/31 04:30:05;;;;;;;43.03;23.47;;;8.80;65.40;;;;;;5060283;28;46419;-65
2022/03/31 04:32:30;;;;;;;46.33;24.40;;;8.80;65.20;;;;;;5052442;28;45870;-65
2022/03/31 04:34:56;;;;;;;44.20;24.20;;;8.80;65.50;;;;;;5054169;28;46427;-65
2022/03/31 04:37:22;;;;;;;59.30;26.83;;;8.90;65.30;;;;;;5062939;28;47079;-66
2022/03/31 04:39:47;;;;;;;49.90;26.33;;;8.90;65.10;;;;;;5062926;28;46611;-65
2022/03/31 04:42:13;;;;;;;50.13;25.07;;;8.90;64.90;;;;;;5062080;28;46499;-65
2022/03/31 04:44:39;;;;;;;49.80;26.87;;;8.80;65.10;;;;;;5062091;28;46566;-65
2022/03/31 04:47:08;;;;;;;49.40;26.03;;;8.80;65.30;;;;;;5062134;28;46991;-65
2022/03/31 04:49:34;;;;;;;52.23;27.70;;;8.80;65.40;;;;;;5034089;28;46405;-65
2022/03/31 04:52:00;;;;;;;51.00;27.87;;;8.80;65.60;;;;;;5061064;28;46319;-64
2022/03/31 04:54:26;;;;;;;56.73;24.17;;;8.80;65.50;;;;;;5061033;28;46291;-64
2022/03/31 04:56:51;;;;;;;54.00;26.33;;;8.80;65.40;;;;;;5061131;28;47187;-64
2022/03/31 04:59:17;;;;;;;52.13;28.13;;;8.80;65.60;;;;;;5063295;28;46460;-65
2022/03/31 05:01:43;;;;;;;51.57;27.60;;;8.80;65.70;;;;;;5062750;28;46388;-64
2022/03/31 05:04:10;;;;;;;50.70;26.67;;;8.80;65.50;;;;;;5064340;28;46294;-67
2022/03/31 05:06:36;;;;;;;48.60;26.37;;;8.90;65.40;;;;;;5062237;28;47158;-64
2022/03/31 05:09:02;;;;;;;57.47;28.00;;;8.80;65.40;;;;;;5061766;28;46414;-63
2022/03/31 05:11:28;;;;;;;54.20;27.07;;;8.80;65.50;;;;;;5058919;28;46394;-65
2022/03/31 05:13:53;;;;;;;55.53;27.23;;;8.80;65.60;;;;;;5059136;28;46428;-65
2022/03/31 05:16:19;;;;;;;50.90;26.87;;;8.80;65.70;;;;;;5059385;28;47086;-66
2022/03/31 05:18:45;;;;;;;57.87;26.93;;;8.80;65.70;;;;;;5061721;28;46845;-64
2022/03/31 05:21:11;;;;;;;46.00;25.23;;;8.80;65.50;;;;;;5062624;28;46392;-65
2022/03/31 05:23:37;;;;;;;51.50;25.70;;;8.80;65.30;;;;;;5062030;28;46047;-65
2022/03/31 05:26:02;;;;;;;53.00;25.37;;;8.80;65.50;;;;;;5060233;28;47158;-65
2022/03/31 05:28:28;;;;;;;45.47;25.07;;;8.90;65.80;;;;;;5056279;28;46355;-64
2022/03/31 05:30:53;;;;;;;43.80;26.00;;;8.70;65.80;;;;;;5055724;28;46434;-65
2022/03/31 05:33:19;;;;;;;51.50;27.60;;;8.80;65.80;;;;;;5062518;28;46479;-65
2022/03/31 05:35:45;;;;;;;44.77;26.13;;;8.70;65.60;;;;;;5061426;28;47161;-65
2022/03/31 05:38:11;;;;;;;51.03;26.67;;;8.80;65.80;;;;;;5059968;28;45840;-65
2022/03/31 05:40:36;;;;;;;44.10;26.10;;;8.80;65.80;;;;;;5054983;28;46432;-64
2022/03/31 05:43:02;;;;;;;51.60;26.43;;;8.90;65.80;;;;;;5058828;28;46412;-65
2022/03/31 05:45:28;;;;;;;46.83;26.13;;;8.90;65.90;;;;;;5054254;28;46436;-65
2022/03/31 05:47:54;;;;;;;51.33;26.80;;;8.90;65.70;;;;;;5061474;28;46418;-65
2022/03/31 05:50:20;;;;;;;46.87;27.13;;;8.90;65.80;;;;;;5058611;28;46473;-65
2022/03/31 05:52:45;;;;;;;46.90;24.30;;;8.80;65.90;;;;;;5061386;28;46415;-64
2022/03/31 05:55:14;;;;;;;48.93;25.97;;;8.80;65.90;;;;;;5058812;28;46337;-64
2022/03/31 05:57:40;;;;;;;53.03;28.00;;;8.80;66.20;;;;;;5059731;28;46287;-65
2022/03/31 06:00:09;;;;;;;48.03;25.40;;;8.80;66.50;;;;;;5060078;28;46597;-64
2022/03/31 06:02:35;;;;;;;50.87;25.83;;;8.80;66.60;;;;;;5060270;28;46558;-65
2022/03/31 06:05:00;;;;;;;49.20;27.43;;;8.80;66.60;;;;;;5057582;28;47315;-66
2022/03/31 06:07:26;;;;;;;61.33;26.90;;;8.70;66.50;;;;;;5060066;28;46394;-65
2022/03/31 06:09:51;;;;;;;55.50;28.23;;;8.70;66.90;;;;;;5062011;28;46508;-64
2022/03/31 06:12:17;;;;;;;50.10;28.23;;;8.70;66.90;;;;;;5059987;28;46418;-64
2022/03/31 06:14:43;;;;;;;54.50;27.67;;;8.70;66.80;;;;;;5053773;28;46393;-66
2022/03/31 06:17:09;;;;;;;43.50;25.77;;;8.70;68.00;;;;;;5055704;28;46400;-65
2022/03/31 06:19:35;;;;;;;50.40;26.73;;;8.80;66.40;;;;;;5061326;28;46448;-66
2022/03/31 06:22:01;;;;;;;52.67;25.30;;;8.90;66.10;;;;;;5061533;28;46288;-66
2022/03/31 06:24:27;;;;;;;44.73;25.47;;;8.90;66.00;;;;;;5056833;28;46465;-65
2022/03/31 06:26:54;;;;;;;49.47;26.33;;;8.90;65.90;;;;;;5051541;28;46558;-65
2022/03/31 06:29:20;;;;;;;49.20;26.40;;;9.00;65.80;;;;;;5057744;28;46331;-65
2022/03/31 06:31:45;;;;;;;42.93;24.53;;;9.00;65.90;;;;;;5061705;28;46426;-65
2022/03/31 06:34:11;;;;;;;45.37;25.60;;;9.00;65.70;;;;;;5054393;28;45999;-66
2022/03/31 06:36:36;;;;;;;44.63;24.50;;;9.00;66.00;;;;;;5056827;28;46306;-65
2022/03/31 06:39:03;;;;;;;53.30;27.00;;;9.00;66.00;;;;;;5060881;28;46259;-68
2022/03/31 06:41:29;;;;;;;46.40;25.50;;;9.10;65.80;;;;;;5060262;28;46493;-66
2022/03/31 06:43:54;;;;;;;54.70;27.00;;;9.10;65.50;;;;;;5054528;28;46421;-68
2022/03/31 06:46:20;;;;;;;45.10;24.70;;;9.10;65.70;;;;;;5054583;28;46422;-66
2022/03/31 06:48:47;;;;;;;44.80;24.90;;;9.30;65.50;;;;;;5051653;28;46581;-65
2022/03/31 06:51:14;;;;;;;68.50;33.93;;;9.30;66.30;;;;;;5029096;28;46139;-65
2022/03/31 06:53:41;;;;;;;51.00;26.30;;;9.40;65.10;;;;;;5058610;28;46911;-65
2022/03/31 06:56:09;;;;;;;45.30;24.50;;;9.50;65.00;;;;;;5047516;28;45795;-66
2022/03/31 06:58:34;;;;;;;40.07;23.23;;;9.50;65.00;;;;;;5057227;28;46292;-66
2022/03/31 07:01:00;;;;;;;40.97;24.40;;;9.50;65.10;;;;;;5059022;28;46616;-66
2022/03/31 07:03:27;;;;;;;41.10;23.27;;;9.50;65.00;;;;;;5054954;28;46504;-65
2022/03/31 07:05:54;;;;;;;41.23;23.90;;;9.60;65.10;;;;;;5053763;28;46358;-65
2022/03/31 07:08:19;;;;;;;47.00;27.00;;;9.80;64.70;;;;;;5060103;28;46421;-65
2022/03/31 07:10:45;;;;;;;49.27;25.20;;;9.80;64.40;;;;;;5060428;28;46366;-65
2022/03/31 07:13:11;;;;;;;45.30;25.40;;;9.80;64.30;;;;;;5059696;28;47438;-66
2022/03/31 07:15:37;;;;;;;44.40;26.03;;;9.70;64.40;;;;;;5056759;28;46732;-67
2022/03/31 07:18:04;;;;;;;46.87;25.33;;;9.60;65.10;;;;;;5060152;28;46337;-64
2022/03/31 07:20:31;;;;;;;44.77;25.10;;;9.50;65.00;;;;;;5059260;28;46384;-67
2022/03/31 07:22:57;;;;;;;41.47;23.37;;;9.50;65.10;;;;;;5060012;28;47359;-67
2022/03/31 07:25:23;;;;;;;39.37;22.60;;;9.50;65.00;;;;;;5059292;28;46509;-65
2022/03/31 07:27:50;;;;;;;39.00;23.00;;;9.50;65.00;;;;;;5057069;28;46326;-64
2022/03/31 07:30:17;;;;;;;41.17;24.20;;;9.60;65.10;;;;;;5045179;28;46319;-66
2022/03/31 07:33:03;;;;;;;39.47;24.00;;;9.70;65.10;;;;;;5057981;28;47065;-66
2022/03/31 07:35:33;;;;;;;39.90;22.40;;;9.90;64.00;;;;;;5055809;28;46288;-65
2022/03/31 07:38:03;;;;;;;37.57;22.73;;;10.10;62.50;;;;;;5058068;28;45811;-63
2022/03/31 07:40:28;;;;;;;38.50;23.13;;;10.10;62.30;;;;;;5059210;28;46335;-63
2022/03/31 07:42:55;;;;;;;46.77;25.77;;;10.00;62.50;;;;;;5059294;28;47241;-64
2022/03/31 07:45:20;;;;;;;42.93;24.90;;;9.90;64.00;;;;;;5052517;28;46453;-63
2022/03/31 07:47:46;;;;;;;40.23;23.97;;;10.00;62.70;;;;;;5062223;28;46346;-64
2022/03/31 07:50:14;;;;;;;41.70;23.90;;;10.10;62.40;;;;;;5062963;28;46524;-63
2022/03/31 07:52:41;;;;;;;41.07;23.70;;;10.20;62.00;;;;;;5058277;28;46454;-64
2022/03/31 07:55:10;;;;;;;50.80;25.90;;;10.30;61.50;;;;;;5050559;28;46320;-63
2022/03/31 07:57:36;;;;;;;41.10;23.60;;;10.40;61.20;;;;;;5062886;28;46311;-63
2022/03/31 08:00:03;;;;;;;44.73;26.23;;;10.30;61.40;;;;;;5063644;28;46477;-64
2022/03/31 08:02:29;;;;;;;42.47;23.53;;;10.20;61.80;;;;;;5063748;28;46389;-64
2022/03/31 08:04:55;;;;;;;41.17;23.43;;;10.20;61.60;;;;;;5063037;28;46309;-63
2022/03/31 08:07:21;;;;;;;43.30;25.77;;;10.10;62.10;;;;;;5062645;28;46369;-64
2022/03/31 08:09:47;;;;;;;43.87;22.60;;;10.20;61.90;;;;;;5063438;28;46283;-64
2022/03/31 08:12:13;;;;;;;40.90;22.80;;;10.20;61.90;;;;;;5053684;28;47967;-65
2022/03/31 08:14:38;;;;;;;39.53;23.63;;;10.10;62.00;;;;;;5062393;28;46294;-63
2022/03/31 08:17:05;;;;;;;42.53;23.43;;;10.20;61.90;;;;;;5057362;28;45895;-64
2022/03/31 08:19:32;;;;;;;46.73;23.30;;;10.20;61.50;;;;;;5059418;28;46426;-65
2022/03/31 08:22:00;;;;;;;42.27;22.50;;;10.30;61.40;;;;;;5059224;28;47223;-64
2022/03/31 08:24:26;;;;;;;42.27;23.17;;;10.20;61.50;;;;;;5062806;28;46319;-64
2022/03/31 08:26:51;;;;;;;45.83;25.30;;;10.20;61.40;;;;;;5063225;28;46477;-64
2022/03/31 08:29:18;;;;;;;40.30;22.70;;;10.20;61.50;;;;;;5063294;28;46425;-64
2022/03/31 08:31:43;;;;;;;37.73;22.13;;;10.30;61.10;;;;;;5061983;28;47397;-64
2022/03/31 08:34:09;;;;;;;37.07;22.47;;;10.30;61.00;;;;;;5062830;28;46384;-64
2022/03/31 08:36:36;;;;;;;36.93;22.50;;;10.20;61.40;;;;;;5060870;28;46711;-63
2022/03/31 08:39:03;;;;;;;38.73;23.50;;;10.20;61.90;;;;;;5035948;28;46466;-62
2022/03/31 08:41:29;;;;;;;37.50;22.50;;;10.00;61.90;;;;;;5058257;28;46421;-63
2022/03/31 08:43:56;;;;;;;37.27;22.53;;;10.00;62.00;;;;;;5057115;28;45808;-64
2022/03/31 08:46:23;;;;;;;48.53;24.07;;;10.20;61.60;;;;;;5058370;28;46316;-64
2022/03/31 08:48:49;;;;;;;35.87;21.37;;;10.10;61.60;;;;;;5062511;28;45808;-64
2022/03/31 08:51:15;;;;;;;38.40;22.87;;;10.20;61.40;;;;;;5058136;28;46961;-64
2022/03/31 08:53:41;;;;;;;41.13;21.50;;;10.40;61.10;;;;;;5056464;28;46369;-64
2022/03/31 08:56:10;;;;;;;36.93;21.27;;;10.40;61.20;;;;;;5058896;28;46437;-64
2022/03/31 08:58:36;;;;;;;34.43;21.47;;;10.40;61.10;;;;;;5060089;28;46451;-64
2022/03/31 09:01:02;;;;;;;38.13;21.70;;;10.40;61.00;;;;;;5051702;28;46370;-64
2022/03/31 09:03:37;;;;;;;42.70;21.87;;;10.30;61.30;;;;;;5059671;28;46366;-64
2022/03/31 09:06:10;;;;;;;35.77;21.23;;;10.40;61.00;;;;;;5060192;28;46427;-64
2022/03/31 09:08:36;;;;;;;41.80;22.73;;;10.60;60.50;;;;;;5061447;28;46413;-65
2022/03/31 09:11:03;;;;;;;36.60;20.20;;;10.50;60.60;;;;;;5060974;28;47196;-64
2022/03/31 09:13:36;;;;;;;35.50;21.73;;;10.60;60.30;;;;;;5061677;28;46394;-64
2022/03/31 09:16:08;;;;;;;37.10;22.10;;;10.70;59.90;;;;;;5053019;28;46283;-64
2022/03/31 09:18:34;;;;;;;31.50;19.30;;;10.80;59.50;;;;;;5061485;28;46524;-64
2022/03/31 09:21:03;;;;;;;34.30;21.00;;;10.80;59.40;;;;;;5052597;28;47248;-63
2022/03/31 09:23:43;;;;;;;32.67;20.70;;;10.90;59.20;;;;;;5050589;28;46288;-63
2022/03/31 09:26:12;;;;;;;30.87;19.73;;;10.70;59.50;;;;;;5058780;28;46717;-63
2022/03/31 09:28:39;;;;;;;32.43;20.10;;;10.80;59.20;;;;;;5061436;28;46618;-63
2022/03/31 09:31:08;;;;;;;37.23;21.80;;;10.70;59.40;;;;;;5055252;28;46710;-64
2022/03/31 09:33:38;;;;;;;34.73;20.37;;;10.70;59.10;;;;;;5056054;28;46369;-64
2022/03/31 09:36:06;;;;;;;35.70;20.90;;;10.60;59.40;;;;;;5062163;28;46386;-64
2022/03/31 09:38:37;;;;;;;38.40;21.00;;;10.70;59.20;;;;;;5062130;28;46492;-64
2022/03/31 09:41:24;;;;;;;37.27;21.73;;;10.60;59.50;;;;;;5059846;28;47072;-63
2022/03/31 09:43:51;;;;;;;42.50;21.50;;;10.70;59.40;;;;;;5057139;28;46268;-64
2022/03/31 09:46:24;;;;;;;33.53;20.87;;;10.70;58.80;;;;;;5059710;28;46487;-64
2022/03/31 09:48:54;;;;;;;36.50;21.07;;;10.80;59.10;;;;;;5060677;28;45898;-64
2022/03/31 09:51:22;;;;;;;34.07;20.73;;;10.90;58.60;;;;;;5051794;28;47609;-64
2022/03/31 09:53:48;;;;;;;39.77;22.03;;;10.90;58.60;;;;;;5060463;28;46573;-64
2022/03/31 09:56:20;;;;;;;56.07;27.70;;;11.00;58.70;;;;;;5056751;28;46390;-65
2022/03/31 09:58:47;;;;;;;35.83;22.10;;;11.00;58.80;;;;;;5060541;28;46345;-65
2022/03/31 10:01:14;;;;;;;39.67;20.90;;;11.20;58.20;;;;;;5058463;28;47074;-65
2022/03/31 10:03:40;;;;;;;37.23;21.73;;;11.30;58.00;;;;;;5057742;28;46469;-64
2022/03/31 10:06:07;;;;;;;35.70;20.20;;;11.40;57.60;;;;;;5058547;28;46456;-64
2022/03/31 10:08:39;;;;;;;38.43;21.10;;;11.60;57.40;;;;;;5061980;28;46578;-64
2022/03/31 10:11:06;;;;;;;39.43;22.60;;;11.70;56.80;;;;;;5057329;28;46272;-65
2022/03/31 10:13:42;;;;;;;34.50;20.83;;;11.70;56.60;;;;;;5059927;28;46464;-65
2022/03/31 10:16:13;;;;;;;42.07;22.17;;;11.60;56.60;;;;;;5055377;28;46557;-65
2022/03/31 10:18:40;;;;;;;38.13;22.77;;;11.60;56.80;;;;;;5057995;28;46421;-65
2022/03/31 10:21:06;;;;;;;42.43;22.07;;;11.50;57.00;;;;;;5058341;28;46389;-66
2022/03/31 10:26:27;;;;;;;40.37;21.37;;;11.50;57.00;;;;;;5058333;28;46318;-66
2022/03/31 10:28:59;;;;;;;36.13;19.80;;;11.70;56.30;;;;;;5064736;28;46546;-66
2022/03/31 10:31:40;;;;;;;36.60;21.17;;;12.00;55.30;;;;;;5059437;28;47280;-66
2022/03/31 10:34:10;;;;;;;32.17;19.07;;;12.30;54.40;;;;;;5059038;28;46426;-66
2022/03/31 10:36:47;;;;;;;31.90;20.70;;;12.20;54.70;;;;;;5059727;28;46433;-66
2022/03/31 10:39:24;;;;;;;32.20;19.07;;;12.00;54.90;;;;;;5056899;28;45904;-66
2022/03/31 10:42:10;;;;;;;30.87;19.33;;;12.10;54.60;;;;;;5060202;28;46674;-66
2022/03/31 10:44:36;;;;;;;31.93;18.83;;;12.10;54.70;;;;;;5060054;28;45785;-66
2022/03/31 10:47:07;;;;;;;31.50;18.87;;;12.00;54.90;;;;;;5058198;28;46278;-66
2022/03/31 10:49:34;;;;;;;32.27;18.80;;;12.10;54.40;;;;;;5053370;28;46469;-66
2022/03/31 10:52:19;;;;;;;36.10;20.23;;;12.30;53.70;;;;;;5059070;28;47279;-65
2022/03/31 10:54:46;;;;;;;34.03;19.87;;;12.40;53.40;;;;;;5058116;28;46384;-65
2022/03/31 10:57:15;;;;;;;36.10;19.80;;;12.50;53.30;;;;;;5057917;28;46342;-66
2022/03/31 10:59:42;;;;;;;35.00;19.43;;;12.40;53.10;;;;;;5060698;28;46700;-65
2022/03/31 11:02:22;;;;;;;35.03;18.90;;;12.00;53.50;;;;;;5059710;28;47214;-65
2022/03/31 11:04:54;;;;;;;32.67;19.13;;;11.90;53.40;;;;;;5060218;28;46482;-66
2022/03/31 11:07:24;;;;;;;34.80;19.97;;;12.00;53.50;;;;;;5060949;28;46442;-66
2022/03/31 11:10:03;;;;;;;33.77;18.73;;;12.10;53.60;;;;;;5060576;28;46597;-65
2022/03/31 11:12:29;;;;;;;34.50;19.40;;;12.20;52.50;;;;;;5056764;28;48441;-66
2022/03/31 11:15:00;;;;;;;33.57;19.60;;;12.50;52.00;;;;;;5061546;28;45815;-65
2022/03/31 11:17:27;;;;;;;43.90;19.87;;;12.30;52.50;;;;;;5058019;28;46397;-65
2022/03/31 11:19:55;;;;;;;36.73;20.90;;;12.30;52.70;;;;;;5056114;28;46413;-65
2022/03/31 11:22:26;;;;;;;39.10;21.93;;;12.20;52.90;;;;;;5052930;28;46416;-63
2022/03/31 11:24:54;;;;;;;32.70;18.93;;;12.30;53.10;;;;;;5050519;28;46401;-64
2022/03/31 11:27:38;;;;;;;39.83;20.17;;;12.80;51.80;;;;;;5059142;28;46571;-64
2022/03/31 11:30:25;;;;;;;33.30;19.43;;;12.90;51.00;;;;;;5059699;28;46520;-61
2022/03/31 11:32:56;;;;;;;31.43;18.03;;;13.00;50.70;;;;;;5059821;28;47118;-62
2022/03/31 11:35:24;;;;;;;34.53;19.40;;;13.10;50.40;;;;;;5059122;28;46410;-62
2022/03/31 11:37:51;;;;;;;32.10;19.63;;;13.50;49.90;;;;;;5057261;28;46447;-63
2022/03/31 11:40:27;;;;;;;36.80;19.20;;;13.80;48.90;;;;;;5060560;28;46281;-64
2022/03/31 11:42:55;;;;;;;32.00;18.13;;;13.70;48.50;;;;;;5059389;28;46579;-64
2022/03/31 11:45:29;;;;;;;33.27;19.13;;;13.50;48.70;;;;;;5058707;28;46401;-64
2022/03/31 11:48:10;;;;;;;31.63;17.67;;;13.60;48.70;;;;;;5042100;28;46380;-64
2022/03/31 11:50:39;;;;;;;29.80;18.27;;;13.40;48.30;;;;;;5051997;28;46786;-65
2022/03/31 11:53:33;;;;;;;34.33;18.03;;;13.20;49.30;;;;;;5059001;28;46597;-63
2022/03/31 11:56:11;;;;;;;34.37;18.47;;;13.30;48.80;;;;;;5054023;28;46509;-64
2022/03/31 11:58:47;;;;;;;34.20;17.87;;;13.20;48.80;;;;;;5059385;28;46429;-63
2022/03/31 12:01:17;;;;;;;40.93;19.07;;;12.90;49.20;;;;;;5059592;28;46465;-63
2022/03/31 12:03:43;;;;;;;35.27;18.00;;;12.90;49.30;;;;;;5057502;28;46397;-64
2022/03/31 12:06:10;;;;;;;38.27;17.67;;;12.80;49.40;;;;;;5059336;28;45750;-64
2022/03/31 12:08:38;;;;;;;32.87;17.30;;;12.60;49.60;;;;;;5059806;28;46420;-65
2022/03/31 12:11:04;;;;;;;38.33;18.63;;;12.60;49.70;;;;;;5057119;28;46465;-64
2022/03/31 12:13:30;;;;;;;36.83;18.43;;;12.50;49.90;;;;;;5060255;28;46022;-64
2022/03/31 12:16:07;;;;;;;35.20;16.87;;;12.60;49.50;;;;;;5057118;28;46422;-64
2022/03/31 12:18:35;;;;;;;37.20;18.90;;;12.50;49.50;;;;;;5060670;28;45874;-65
2022/03/31 12:21:03;;;;;;;28.67;17.40;;;12.40;49.70;;;;;;5058074;28;46296;-64
2022/03/31 12:23:29;;;;;;;39.00;20.07;;;12.30;50.00;;;;;;5058292;28;47276;-64
2022/03/31 12:25:56;;;;;;;37.13;17.57;;;12.20;50.50;;;;;;5058129;28;46421;-63
2022/03/31 12:28:23;;;;;;;31.57;17.27;;;12.00;50.80;;;;;;5058845;28;46678;-64
2022/03/31 12:30:54;;;;;;;33.80;17.00;;;12.20;50.30;;;;;;5055347;28;46365;-65
2022/03/31 12:33:34;;;;;;;31.80;15.97;;;12.20;50.20;;;;;;5053959;28;46245;-65
2022/03/31 12:36:05;;;;;;;35.40;17.33;;;11.90;50.80;;;;;;5058681;28;46364;-64
2022/03/31 12:38:45;;;;;;;34.20;17.20;;;11.80;51.20;;;;;;5061824;28;46424;-64
2022/03/31 12:41:22;;;;;;;24.57;15.53;;;11.60;51.60;;;;;;5062292;28;46487;-65